createdAt,value
2022-10-31T00:01:40.546Z,29.78
2022-10-31T00:04:08.309Z,29.42
2022-10-31T00:06:35.485Z,29.64
2022-10-31T00:09:04.183Z,29.95
2022-10-31T00:11:31.436Z,29.86
2022-10-31T00:14:00.239Z,29.61
2022-10-31T00:16:28.089Z,29.54
2022-10-31T00:18:56.666Z,29.75
2022-10-31T00:21:24.633Z,29.69
2022-10-31T00:23:55.949Z,29.59
2022-10-31T00:26:23.721Z,29.78
2022-10-31T00:28:52.108Z,29.98
2022-10-31T00:31:19.556Z,29.91
2022-10-31T00:33:47.213Z,29.98
2022-10-31T00:36:18.830Z,30.09
2022-10-31T00:38:46.565Z,29.55
2022-10-31T00:41:15.153Z,29.86
2022-10-31T00:43:43.201Z,29.55
2022-10-31T00:46:11.124Z,29.89
2022-10-31T00:48:38.385Z,30.16
2022-10-31T00:51:05.863Z,29.74
2022-10-31T00:53:33.517Z,29.91
2022-10-31T00:56:00.978Z,29.72
2022-10-31T00:58:28.455Z,29.41
2022-10-31T01:00:56.466Z,30.05
2022-10-31T01:03:25.017Z,29.51
2022-10-31T01:06:10.051Z,29.19
2022-10-31T01:08:38.139Z,29.73
2022-10-31T01:11:15.951Z,30.21
2022-10-31T01:13:43.690Z,30.16
2022-10-31T01:16:12.398Z,29.82
2022-10-31T01:18:39.768Z,29.66
2022-10-31T01:21:09.984Z,29.28
2022-10-31T01:23:37.850Z,29.29
2022-10-31T01:26:12.689Z,29.35
2022-10-31T01:28:45.964Z,29.32
2022-10-31T01:31:13.484Z,29.37
2022-10-31T01:33:42.176Z,29.21
2022-10-31T01:36:36.138Z,29.80
2022-10-31T01:39:05.034Z,29.49
2022-10-31T01:41:34.316Z,29.63
2022-10-31T01:44:24.751Z,29.58
2022-10-31T01:46:58.079Z,29.65
2022-10-31T01:49:25.553Z,29.63
2022-10-31T01:51:55.359Z,29.72
2022-10-31T01:54:24.200Z,29.56
2022-10-31T01:56:53.233Z,29.62
2022-10-31T01:59:21.888Z,29.58
2022-10-31T02:01:51.910Z,29.81
2022-10-31T02:04:20.247Z,30.09
2022-10-31T02:06:54.716Z,30.02
2022-10-31T02:09:24.541Z,30.01
2022-10-31T02:11:56.497Z,29.82
2022-10-31T02:14:24.869Z,29.71
2022-10-31T02:16:52.953Z,29.53
2022-10-31T02:19:26.617Z,29.66
2022-10-31T02:21:57.908Z,29.46
2022-10-31T02:24:37.403Z,29.82
2022-10-31T02:27:16.875Z,29.42
2022-10-31T02:29:50.028Z,29.99
2022-10-31T02:32:24.551Z,29.83
2022-10-31T02:34:59.602Z,29.77
2022-10-31T02:37:32.623Z,29.53
2022-10-31T02:40:16.142Z,29.57
2022-10-31T02:45:54.263Z,29.88
2022-10-31T02:48:25.366Z,29.70
2022-10-31T02:51:03.255Z,29.98
2022-10-31T02:53:34.869Z,30.01
2022-10-31T02:56:02.371Z,29.95
2022-10-31T02:58:32.967Z,29.80
2022-10-31T03:01:20.865Z,29.68
2022-10-31T03:04:01.871Z,29.66
2022-10-31T03:06:48.136Z,29.63
2022-10-31T03:09:18.184Z,29.50
2022-10-31T03:11:59.710Z,29.87
2022-10-31T03:14:39.368Z,29.68
2022-10-31T03:17:08.845Z,29.48
2022-10-31T03:19:40.272Z,29.43
2022-10-31T03:22:07.643Z,29.28
2022-10-31T03:24:38.498Z,29.43
2022-10-31T03:27:08.183Z,29.54
2022-10-31T03:29:37.397Z,29.08
2022-10-31T03:32:05.897Z,29.36
2022-10-31T03:34:36.391Z,29.13
2022-10-31T03:37:05.554Z,29.37
2022-10-31T03:39:34.036Z,29.35
2022-10-31T03:42:06.941Z,29.25
2022-10-31T03:44:35.944Z,29.61
2022-10-31T03:47:05.207Z,29.35
2022-10-31T03:49:34.101Z,29.19
2022-10-31T03:52:07.747Z,29.15
2022-10-31T03:54:38.895Z,29.19
2022-10-31T03:57:12.143Z,29.39
2022-10-31T03:59:44.910Z,29.15
2022-10-31T04:02:16.115Z,29.37
2022-10-31T04:04:46.760Z,29.22
2022-10-31T04:07:14.850Z,29.05
2022-10-31T04:09:43.985Z,29.26
2022-10-31T04:12:16.174Z,29.39
2022-10-31T04:15:15.192Z,29.24
2022-10-31T04:17:46.962Z,29.95
2022-10-31T04:20:16.974Z,29.39
2022-10-31T04:22:44.568Z,29.32
2022-10-31T04:25:11.912Z,29.45
2022-10-31T04:27:39.855Z,29.25
2022-10-31T04:30:09.365Z,29.07
2022-10-31T04:32:40.270Z,29.86
2022-10-31T04:35:08.590Z,29.53
2022-10-31T04:37:35.851Z,29.49
2022-10-31T04:40:04.641Z,29.26
2022-10-31T04:42:50.402Z,29.61
2022-10-31T04:45:21.063Z,29.65
2022-10-31T04:47:51.950Z,29.83
2022-10-31T04:50:19.587Z,29.89
2022-10-31T04:52:47.256Z,29.51
2022-10-31T04:55:18.093Z,29.76
2022-10-31T05:00:47.284Z,29.85
2022-10-31T05:03:15.430Z,29.78
2022-10-31T05:05:43.402Z,29.27
2022-10-31T05:08:10.612Z,29.63
2022-10-31T05:10:38.313Z,29.43
2022-10-31T05:13:06.082Z,29.59
2022-10-31T05:15:59.650Z,29.13
2022-10-31T05:18:45.530Z,29.18
2022-10-31T05:21:31.722Z,29.55
2022-10-31T05:24:02.275Z,29.06
2022-10-31T05:26:30.439Z,29.31
2022-10-31T05:28:57.797Z,29.07
2022-10-31T05:31:25.052Z,29.32
2022-10-31T05:33:54.231Z,29.26
2022-10-31T05:36:47.582Z,29.21
2022-10-31T05:39:20.593Z,29.14
2022-10-31T05:41:50.831Z,28.76
2022-10-31T05:44:23.786Z,28.98
2022-10-31T05:46:58.215Z,29.12
2022-10-31T05:49:54.552Z,28.72
2022-10-31T05:52:40.406Z,28.92
2022-10-31T05:55:17.939Z,28.95
2022-10-31T05:58:00.379Z,29.01
2022-10-31T06:00:28.889Z,28.94
2022-10-31T06:03:05.881Z,29.50
2022-10-31T06:05:42.582Z,29.26
2022-10-31T06:08:10.003Z,29.01
2022-10-31T06:10:39.577Z,29.12
2022-10-31T06:13:07.719Z,29.34
2022-10-31T06:15:42.123Z,28.61
2022-10-31T06:18:10.042Z,28.81
2022-10-31T06:20:47.198Z,28.85
2022-10-31T06:23:14.638Z,29.01
2022-10-31T06:25:44.505Z,28.90
2022-10-31T06:28:13.463Z,28.92
2022-10-31T06:31:11.206Z,28.88
2022-10-31T06:33:38.768Z,29.10
2022-10-31T06:36:06.063Z,29.04
2022-10-31T06:38:33.415Z,28.90
2022-10-31T06:41:05.878Z,28.89
2022-10-31T06:43:43.312Z,28.81
2022-10-31T06:46:33.850Z,29.08
2022-10-31T06:49:30.544Z,28.92
2022-10-31T06:52:02.223Z,29.12
2022-10-31T06:54:30.041Z,28.93
2022-10-31T06:56:57.671Z,29.26
2022-10-31T06:59:25.470Z,29.05
2022-10-31T07:02:15.843Z,29.45
2022-10-31T07:04:46.362Z,29.26
2022-10-31T07:07:15.569Z,28.97
2022-10-31T07:09:43.085Z,29.45
2022-10-31T07:12:12.043Z,29.00
2022-10-31T07:14:48.202Z,29.46
2022-10-31T07:17:15.503Z,29.30
2022-10-31T07:19:45.138Z,29.47
2022-10-31T07:22:14.336Z,29.34
2022-10-31T07:24:44.218Z,29.35
2022-10-31T07:27:30.105Z,29.04
2022-10-31T07:29:57.530Z,29.12
2022-10-31T07:32:24.784Z,29.33
2022-10-31T07:35:00.839Z,29.58
2022-10-31T07:37:43.817Z,29.56
2022-10-31T07:40:12.589Z,29.49
2022-10-31T07:42:41.257Z,29.25
2022-10-31T07:45:14.499Z,29.89
2022-10-31T07:48:00.373Z,29.82
2022-10-31T07:51:08.057Z,30.12
2022-10-31T07:53:53.842Z,29.74
2022-10-31T07:56:26.262Z,29.52
2022-10-31T07:58:54.339Z,29.68
2022-10-31T08:01:21.604Z,28.92
2022-10-31T08:04:06.878Z,29.43
2022-10-31T08:06:52.493Z,29.52
2022-10-31T08:09:28.112Z,29.29
2022-10-31T08:11:58.834Z,29.23
2022-10-31T08:14:26.343Z,28.15
2022-10-31T08:16:54.220Z,28.16
2022-10-31T08:19:22.139Z,29.30
2022-10-31T08:21:55.995Z,29.67
2022-10-31T08:24:24.173Z,29.86
2022-10-31T08:26:51.397Z,29.60
2022-10-31T08:29:18.660Z,29.87
2022-10-31T08:31:47.615Z,29.36
2022-10-31T08:34:52.908Z,29.56
2022-10-31T08:37:38.690Z,30.11
2022-10-31T08:40:07.854Z,29.90
2022-10-31T08:42:35.928Z,29.67
2022-10-31T08:45:03.714Z,29.96
2022-10-31T08:47:32.940Z,30.00
2022-10-31T08:50:00.486Z,30.16
2022-10-31T08:52:50.950Z,30.09
2022-10-31T08:55:15.456Z,29.67
2022-10-31T08:58:06.726Z,30.44
2022-10-31T09:00:49.815Z,29.99
2022-10-31T09:03:20.392Z,29.66
2022-10-31T09:05:48.100Z,30.26
2022-10-31T09:08:16.988Z,29.89
2022-10-31T09:10:46.815Z,30.24
2022-10-31T09:13:18.960Z,29.88
2022-10-31T09:16:04.798Z,29.66
2022-10-31T09:18:33.024Z,29.09
2022-10-31T09:21:00.959Z,29.44
2022-10-31T09:23:31.046Z,29.82
2022-10-31T09:26:00.926Z,29.52
2022-10-31T09:28:38.988Z,29.45
2022-10-31T09:31:14.227Z,29.67
2022-10-31T09:33:59.778Z,28.45
2022-10-31T09:36:47.097Z,29.02
2022-10-31T09:39:23.263Z,29.56
2022-10-31T09:41:58.205Z,29.66
2022-10-31T09:44:30.986Z,29.11
2022-10-31T09:47:02.933Z,29.90
2022-10-31T09:49:44.011Z,29.79
2022-10-31T09:54:54.615Z,29.18
2022-10-31T09:57:29.068Z,29.29
2022-10-31T09:59:57.728Z,29.48
2022-10-31T10:02:35.823Z,29.46
2022-10-31T10:05:25.475Z,29.00
2022-10-31T10:08:02.048Z,29.08
2022-10-31T10:11:19.383Z,29.26
2022-10-31T10:13:55.407Z,29.77
2022-10-31T10:16:22.602Z,29.79
2022-10-31T10:18:52.932Z,30.04
2022-10-31T10:21:35.289Z,29.86
2022-10-31T10:24:21.292Z,29.63
2022-10-31T10:26:55.033Z,29.24
2022-10-31T10:29:22.242Z,29.50
2022-10-31T10:31:50.825Z,29.51
2022-10-31T10:34:28.894Z,29.77
2022-10-31T10:36:59.096Z,30.23
2022-10-31T10:39:29.327Z,30.30
2022-10-31T10:42:16.799Z,29.27
2022-10-31T10:45:07.962Z,29.93
2022-10-31T10:47:42.335Z,29.36
2022-10-31T10:50:12.651Z,29.60
2022-10-31T10:52:50.771Z,29.74
2022-10-31T10:55:28.150Z,29.76
2022-10-31T10:58:13.455Z,30.10
2022-10-31T11:00:47.547Z,29.96
2022-10-31T11:03:15.808Z,30.03
2022-10-31T11:05:43.488Z,30.00
2022-10-31T11:08:10.839Z,29.61
2022-10-31T11:10:38.386Z,29.54
2022-10-31T11:13:14.729Z,29.87
2022-10-31T11:15:54.462Z,29.67
2022-10-31T11:18:27.368Z,29.35
2022-10-31T11:20:58.690Z,29.25
2022-10-31T11:23:27.164Z,29.20
2022-10-31T11:25:54.519Z,29.37
2022-10-31T11:28:24.986Z,29.72
2022-10-31T11:30:56.995Z,29.89
2022-10-31T11:33:35.246Z,30.26
2022-10-31T11:36:03.563Z,29.97
2022-10-31T11:38:36.139Z,30.15
2022-10-31T11:41:17.677Z,30.36
2022-10-31T11:43:51.675Z,30.02
2022-10-31T11:46:59.038Z,29.80
2022-10-31T11:49:42.196Z,29.94
2022-10-31T11:52:14.869Z,30.10
2022-10-31T11:54:47.831Z,29.96
2022-10-31T11:57:24.279Z,29.26
2022-10-31T11:59:52.642Z,29.85
2022-10-31T12:02:20.619Z,30.40
2022-10-31T12:04:51.681Z,30.05
2022-10-31T12:07:18.902Z,30.20
2022-10-31T12:09:46.247Z,29.91
2022-10-31T12:12:23.714Z,30.30
2022-10-31T12:15:09.404Z,30.23
2022-10-31T12:17:49.143Z,29.90
2022-10-31T12:20:25.093Z,29.44
2022-10-31T12:22:58.896Z,30.05
2022-10-31T12:25:43.018Z,29.75
2022-10-31T12:28:25.363Z,29.56
2022-10-31T12:30:52.550Z,30.10
2022-10-31T12:33:42.951Z,30.17
2022-10-31T12:36:28.662Z,30.03
2022-10-31T12:39:03.961Z,30.03
2022-10-31T12:41:40.321Z,30.20
2022-10-31T12:44:13.974Z,30.00
2022-10-31T12:46:44.098Z,30.23
2022-10-31T12:49:24.012Z,30.04
2022-10-31T12:51:54.435Z,30.20
2022-10-31T12:54:34.629Z,30.02
2022-10-31T12:57:22.384Z,29.99
2022-10-31T12:59:55.451Z,29.93
2022-10-31T13:02:26.305Z,29.63
2022-10-31T13:05:12.722Z,30.00
2022-10-31T13:07:46.181Z,30.30
2022-10-31T13:10:19.118Z,30.40
2022-10-31T13:12:49.296Z,30.19
2022-10-31T13:15:22.078Z,30.19
2022-10-31T13:17:54.882Z,30.03
2022-10-31T13:20:25.252Z,29.93
2022-10-31T13:23:23.901Z,29.76
2022-10-31T13:26:00.115Z,30.37
2022-10-31T13:28:40.256Z,29.91
2022-10-31T13:31:07.600Z,30.25
2022-10-31T13:33:55.034Z,30.24
2022-10-31T13:36:39.765Z,29.99
2022-10-31T13:39:17.076Z,30.69
2022-10-31T13:41:54.011Z,30.00
2022-10-31T13:44:28.619Z,30.30
2022-10-31T13:46:57.634Z,30.50
2022-10-31T13:49:24.813Z,29.91
2022-10-31T13:51:54.123Z,30.08
2022-10-31T13:54:23.093Z,29.86
2022-10-31T13:56:53.668Z,30.38
2022-10-31T13:59:23.150Z,30.38
2022-10-31T14:02:01.896Z,30.52
2022-10-31T14:04:33.501Z,30.40
2022-10-31T14:07:12.210Z,30.22
2022-10-31T14:09:39.469Z,30.45
2022-10-31T14:12:08.433Z,30.38
2022-10-31T14:14:41.318Z,30.54
2022-10-31T14:17:17.279Z,30.60
2022-10-31T14:19:44.711Z,30.38
2022-10-31T14:22:24.427Z,30.07
2022-10-31T14:24:51.823Z,30.50
2022-10-31T14:27:24.891Z,30.47
2022-10-31T14:29:52.556Z,30.62
2022-10-31T14:32:19.739Z,30.33
2022-10-31T14:34:56.004Z,30.26
2022-10-31T14:37:23.329Z,30.44
2022-10-31T14:40:09.071Z,30.13
2022-10-31T14:42:36.477Z,30.39
2022-10-31T14:45:09.597Z,30.38
2022-10-31T14:47:55.440Z,30.23
2022-10-31T14:50:25.601Z,30.31
2022-10-31T14:52:54.728Z,30.27
2022-10-31T14:55:22.512Z,30.29
2022-10-31T14:57:58.802Z,30.06
2022-10-31T15:00:26.602Z,30.41
2022-10-31T15:02:53.763Z,30.17
2022-10-31T15:05:21.819Z,30.35
2022-10-31T15:07:57.048Z,30.30
2022-10-31T15:10:26.446Z,30.46
2022-10-31T15:12:54.222Z,30.51
2022-10-31T15:15:22.907Z,30.49
2022-10-31T15:17:55.114Z,30.54
2022-10-31T15:20:27.389Z,30.47
2022-10-31T15:22:56.903Z,30.51
2022-10-31T15:25:24.933Z,30.77
2022-10-31T15:27:53.160Z,30.20
2022-10-31T15:30:22.361Z,30.42
2022-10-31T15:32:57.513Z,31.01
2022-10-31T15:35:27.400Z,30.57
2022-10-31T15:37:56.079Z,30.70
2022-10-31T15:40:25.495Z,29.84
2022-10-31T15:42:57.267Z,30.57
2022-10-31T15:45:26.371Z,30.92
2022-10-31T15:47:53.714Z,30.58
2022-10-31T15:50:41.543Z,30.61
2022-10-31T15:53:23.454Z,30.82
2022-10-31T15:56:01.560Z,30.53
2022-10-31T15:58:29.719Z,30.21
2022-10-31T16:01:03.092Z,30.02
2022-10-31T16:03:31.880Z,30.36
2022-10-31T16:06:00.654Z,30.58
2022-10-31T16:08:33.797Z,30.28
2022-10-31T16:11:06.986Z,30.62
2022-10-31T16:13:35.629Z,30.60
2022-10-31T16:18:54.020Z,30.92
2022-10-31T16:21:25.407Z,30.06
2022-10-31T16:23:58.082Z,30.25
2022-10-31T16:26:26.400Z,30.52
2022-10-31T16:29:03.243Z,30.48
2022-10-31T16:31:39.387Z,30.60
2022-10-31T16:34:12.676Z,30.64
2022-10-31T16:36:40.832Z,30.54
2022-10-31T16:39:08.326Z,30.46
2022-10-31T16:41:37.110Z,30.32
2022-10-31T16:44:05.864Z,30.42
2022-10-31T16:46:33.338Z,30.52
2022-10-31T16:49:01.138Z,30.65
2022-10-31T16:51:28.360Z,30.28
2022-10-31T16:53:56.188Z,30.50
2022-10-31T16:56:32.547Z,30.59
2022-10-31T16:59:02.259Z,30.46
2022-10-31T17:01:30.355Z,30.55
2022-10-31T17:03:58.045Z,30.56
2022-10-31T17:06:28.487Z,30.06
2022-10-31T17:08:55.793Z,30.49
2022-10-31T17:11:25.762Z,30.78
2022-10-31T17:13:53.829Z,30.36
2022-10-31T17:16:21.141Z,30.60
2022-10-31T17:18:48.603Z,30.32
2022-10-31T17:21:18.470Z,30.44
2022-10-31T17:23:45.706Z,30.44
2022-10-31T17:26:13.040Z,30.58
2022-10-31T17:28:40.454Z,30.48
2022-10-31T17:31:11.811Z,30.33
2022-10-31T17:33:39.233Z,30.51
2022-10-31T17:36:06.742Z,30.39
2022-10-31T17:38:34.002Z,30.52
2022-10-31T17:41:09.944Z,30.75
2022-10-31T17:43:38.955Z,30.67
2022-10-31T17:46:06.908Z,30.68
2022-10-31T17:48:37.539Z,30.45
2022-10-31T17:51:05.958Z,30.30
2022-10-31T17:53:34.604Z,30.39
2022-10-31T17:56:05.855Z,30.36
2022-10-31T17:58:34.210Z,30.51
2022-10-31T18:01:01.873Z,30.48
2022-10-31T18:03:29.173Z,30.45
2022-10-31T18:05:57.438Z,30.51
2022-10-31T18:08:26.034Z,30.35
2022-10-31T18:10:53.804Z,30.72
2022-10-31T18:13:21.413Z,30.36
2022-10-31T18:15:48.814Z,30.68
2022-10-31T18:18:16.236Z,30.51
2022-10-31T18:20:43.773Z,30.32
2022-10-31T18:23:11.542Z,30.62
2022-10-31T18:25:39.563Z,30.73
2022-10-31T18:28:07.472Z,30.46
2022-10-31T18:30:34.725Z,30.48
2022-10-31T18:33:02.287Z,30.35
2022-10-31T18:35:29.656Z,30.17
2022-10-31T18:37:59.271Z,30.09
2022-10-31T18:40:29.770Z,30.16
2022-10-31T18:42:56.989Z,29.99
2022-10-31T18:45:33.891Z,30.13
2022-10-31T18:48:12.971Z,30.51
2022-10-31T18:50:40.477Z,30.34
2022-10-31T18:53:07.816Z,30.00
2022-10-31T18:55:38.735Z,30.00
2022-10-31T18:58:06.078Z,30.19
2022-10-31T19:00:33.384Z,30.18
2022-10-31T19:03:01.612Z,30.51
2022-10-31T19:05:29.085Z,30.57
2022-10-31T19:07:56.407Z,30.05
2022-10-31T19:10:26.398Z,30.06
2022-10-31T19:12:53.572Z,29.96
2022-10-31T19:15:20.929Z,30.02
2022-10-31T19:17:48.403Z,30.08
2022-10-31T19:20:15.647Z,30.20
2022-10-31T19:22:43.218Z,30.01
2022-10-31T19:25:11.128Z,30.06
2022-10-31T19:27:39.115Z,30.39
2022-10-31T19:30:06.993Z,30.50
2022-10-31T19:32:34.668Z,30.24
2022-10-31T19:35:02.896Z,30.10
2022-10-31T19:37:30.336Z,30.21
2022-10-31T19:39:57.655Z,29.93
2022-10-31T19:42:25.019Z,30.39
2022-10-31T19:44:52.311Z,30.18
2022-10-31T19:47:19.629Z,29.96
2022-10-31T19:49:46.874Z,30.07
2022-10-31T19:52:14.150Z,30.24
2022-10-31T19:54:41.613Z,30.41
2022-10-31T19:57:08.978Z,30.25
2022-10-31T19:59:39.324Z,30.71
2022-10-31T20:02:07.049Z,30.62
2022-10-31T20:04:34.457Z,30.46
2022-10-31T20:07:02.132Z,30.29
2022-10-31T20:09:29.361Z,30.34
2022-10-31T20:11:56.765Z,30.17
2022-10-31T20:14:24.059Z,30.16
2022-10-31T20:16:51.383Z,30.53
2022-10-31T20:19:18.602Z,30.40
2022-10-31T20:21:45.897Z,30.47
2022-10-31T20:24:13.140Z,30.68
2022-10-31T20:26:41.295Z,30.11
2022-10-31T20:29:12.250Z,30.44
2022-10-31T20:31:40.069Z,30.58
2022-10-31T20:34:07.426Z,30.48
2022-10-31T20:36:36.748Z,30.56
2022-10-31T20:39:04.241Z,30.70
2022-10-31T20:41:31.499Z,30.85
2022-10-31T20:43:58.779Z,30.38
2022-10-31T20:46:26.877Z,30.42
2022-10-31T20:48:54.255Z,30.67
2022-10-31T20:51:22.834Z,30.53
2022-10-31T20:53:53.849Z,30.45
2022-10-31T20:56:22.341Z,30.33
2022-10-31T20:58:50.108Z,30.46
2022-10-31T21:01:19.000Z,30.81
2022-10-31T21:03:46.518Z,30.73
2022-10-31T21:06:14.800Z,30.61
2022-10-31T21:08:42.801Z,30.29
2022-10-31T21:11:11.644Z,30.52
2022-10-31T21:13:40.819Z,30.36
2022-10-31T21:16:10.376Z,30.19
2022-10-31T21:18:38.559Z,30.27
2022-10-31T21:21:09.692Z,30.36
2022-10-31T21:23:37.611Z,30.33
2022-10-31T21:26:08.215Z,30.63
2022-10-31T21:28:36.171Z,30.25
2022-10-31T21:31:08.459Z,30.35
2022-10-31T21:33:36.005Z,30.65
2022-10-31T21:36:04.138Z,29.77
2022-10-31T21:38:31.598Z,29.58
2022-10-31T21:41:17.576Z,30.00
2022-10-31T21:43:46.074Z,30.36
2022-10-31T21:46:14.587Z,30.23
2022-10-31T21:48:43.527Z,30.20
2022-10-31T21:51:15.530Z,30.35
2022-10-31T21:54:01.815Z,30.24
2022-10-31T21:56:29.439Z,30.32
2022-10-31T21:58:56.772Z,30.32
2022-10-31T22:01:25.509Z,30.45
2022-10-31T22:03:53.201Z,30.02
2022-10-31T22:06:20.597Z,30.15
2022-10-31T22:08:48.336Z,30.13
2022-10-31T22:11:17.115Z,30.23
2022-10-31T22:13:46.023Z,30.44
2022-10-31T22:16:14.665Z,29.89
2022-10-31T22:18:42.792Z,29.94
2022-10-31T22:21:11.686Z,30.01
2022-10-31T22:23:39.282Z,29.87
2022-10-31T22:26:08.420Z,30.31
2022-10-31T22:28:35.865Z,30.31
2022-10-31T22:31:04.326Z,30.45
2022-10-31T22:33:31.725Z,29.97
2022-10-31T22:36:05.677Z,29.64
2022-10-31T22:38:40.488Z,30.00
2022-10-31T22:41:08.914Z,29.73
2022-10-31T22:43:36.458Z,30.18
2022-10-31T22:46:06.399Z,30.00
2022-10-31T22:48:37.943Z,30.28
2022-10-31T22:51:09.518Z,29.88
2022-10-31T22:53:37.786Z,30.54
2022-10-31T22:56:06.370Z,29.92
2022-10-31T22:58:34.566Z,30.44
2022-10-31T23:01:06.811Z,30.23
2022-10-31T23:03:34.690Z,30.20
2022-10-31T23:06:02.639Z,30.37
2022-10-31T23:08:30.745Z,30.03
2022-10-31T23:10:58.037Z,29.97
2022-10-31T23:13:44.192Z,29.63
2022-10-31T23:16:13.434Z,30.43
2022-10-31T23:18:55.518Z,30.08
2022-10-31T23:21:44.123Z,30.11
2022-10-31T23:24:12.077Z,30.33
2022-10-31T23:26:58.426Z,30.28
2022-10-31T23:29:25.763Z,29.89
2022-10-31T23:31:54.743Z,29.53
2022-10-31T23:34:22.653Z,30.45
2022-10-31T23:36:50.011Z,30.05
2022-10-31T23:39:20.022Z,30.17
2022-10-31T23:41:50.355Z,30.17
2022-10-31T23:44:17.644Z,30.34
2022-10-31T23:46:45.011Z,29.78
2022-10-31T23:49:12.300Z,30.21
2022-10-31T23:51:40.063Z,29.92
2022-10-31T23:54:07.599Z,29.89
2022-10-31T23:56:35.068Z,29.73
2022-10-31T23:59:02.329Z,29.71
